Time;durP1;ratioP1;P1;durP2;ratioP2;P2;SDS_P1;SDS_P2;PMS_P1;PMS_P2;Temp;Humidity;BMP_temperature;BMP_pressure;BME280_temperature;BME280_humidity;BME280_pressure;Samples;Min_cycle;Max_cycle;Signal;HPM_P1;HPM_P2
2022/10/13 00:01:38;;;;;;;;;;;14.30;99.90;;;;;;5059070;28;19964;-75
2022/10/13 00:04:04;;;;;;;;;;;14.30;99.90;;;;;;5082833;28;19916;-76
2022/10/13 00:06:30;;;;;;;;;;;14.30;99.90;;;;;;5067783;28;20003;-75
2022/10/13 00:08:57;;;;;;;;;;;14.30;99.90;;;;;;5086353;28;19918;-75
2022/10/13 00:11:24;;;;;;;;;;;14.30;99.90;;;;;;5056117;28;19917;-75
2022/10/13 00:13:51;;;;;;;;;;;14.30;99.90;;;;;;5046883;28;19913;-75
2022/10/13 00:16:18;;;;;;;;;;;14.30;99.90;;;;;;5058012;28;19975;-75
2022/10/13 00:18:44;;;;;;;;;;;14.20;99.90;;;;;;5067006;28;19920;-75
2022/10/13 00:21:11;;;;;;;;;;;14.30;99.90;;;;;;5065498;28;20444;-75
2022/10/13 00:23:37;;;;;;;;;;;14.30;99.90;;;;;;5048437;28;20387;-76
2022/10/13 00:26:04;;;;;;;;;;;14.30;99.90;;;;;;5067519;28;19912;-76
2022/10/13 00:28:30;;;;;;;;;;;14.30;99.90;;;;;;5069485;28;20395;-77
2022/10/13 00:30:55;;;;;;;;;;;14.30;99.90;;;;;;5084980;28;19923;-76
2022/10/13 00:33:21;;;;;;;;;;;14.30;99.90;;;;;;5069301;28;19916;-77
2022/10/13 00:35:47;;;;;;;;;;;14.30;99.90;;;;;;5063072;28;20240;-77
2022/10/13 00:38:13;;;;;;;;;;;14.30;99.90;;;;;;5064789;28;19923;-78
2022/10/13 00:40:46;;;;;;;;;;;14.30;99.90;;;;;;5066208;28;19922;-78
2022/10/13 00:43:16;;;;;;;;;;;14.30;99.90;;;;;;5063648;28;20156;-78
2022/10/13 00:45:42;;;;;;;;;;;14.20;99.90;;;;;;5075753;28;19961;-78
2022/10/13 00:48:07;;;;;;;;;;;14.10;99.90;;;;;;5078240;28;19924;-77
2022/10/13 00:50:37;;;;;;;;;;;14.00;99.90;;;;;;5065657;28;19994;-78
2022/10/13 00:53:04;;;;;;;;;;;13.90;99.90;;;;;;5048915;28;19917;-78
2022/10/13 00:55:31;;;;;;;;;;;13.80;99.90;;;;;;5062717;28;20007;-78
2022/10/13 00:57:59;;;;;;;;;;;13.70;99.90;;;;;;5062153;28;19936;-78
2022/10/13 01:00:25;;;;;;;;;;;13.60;99.90;;;;;;5061457;28;19912;-77
2022/10/13 01:02:50;;;;;;;;;;;13.60;99.90;;;;;;5068834;28;20555;-76
2022/10/13 01:05:17;;;;;;;;;;;13.60;99.90;;;;;;5064818;28;20357;-77
2022/10/13 01:07:43;;;;;;;;;;;13.50;99.90;;;;;;5077687;28;19924;-76
2022/10/13 01:10:09;;;;;;;;;;;13.50;99.90;;;;;;5063549;28;20528;-76
2022/10/13 01:12:40;;;;;;;;;;;13.50;99.90;;;;;;5065418;28;19919;-76
2022/10/13 01:15:16;;;;;;;;;;;13.40;99.90;;;;;;5079673;28;19992;-77
2022/10/13 01:17:43;;;;;;;;;;;13.40;99.90;;;;;;5063057;28;20279;-77
2022/10/13 01:20:11;;;;;;;;;;;13.40;99.90;;;;;;5079702;28;20007;-77
2022/10/13 01:22:40;;;;;;;;;;;13.30;99.90;;;;;;5064928;28;20065;-77
2022/10/13 01:25:22;;;;;;;;;;;13.30;99.90;;;;;;5079483;28;20007;-76
2022/10/13 01:28:08;;;;;;;;;;;13.20;99.90;;;;;;5043042;28;20374;-76
2022/10/13 01:30:39;;;;;;;;;;;13.20;99.90;;;;;;5063023;28;20409;-77
2022/10/13 01:33:37;;;;;;;;;;;13.20;99.90;;;;;;5042446;28;19917;-75
2022/10/13 01:36:03;;;;;;;;;;;13.10;99.90;;;;;;5039928;28;19913;-76
2022/10/13 01:38:57;;;;;;;;;;;13.10;99.90;;;;;;5053286;28;19912;-76
2022/10/13 01:41:40;;;;;;;;;;;13.10;99.90;;;;;;5047373;28;19912;-76
2022/10/13 01:44:14;;;;;;;;;;;13.00;99.90;;;;;;5024253;28;19913;-77
2022/10/13 01:46:41;;;;;;;;;;;13.00;99.90;;;;;;5042425;28;19969;-76
2022/10/13 01:49:10;;;;;;;;;;;13.00;99.90;;;;;;5043801;28;19923;-77
2022/10/13 01:51:35;;;;;;;;;;;12.90;99.90;;;;;;5062631;28;19912;-77
2022/10/13 01:54:01;;;;;;;;;;;12.90;99.90;;;;;;5061623;28;19924;-77
2022/10/13 01:56:26;;;;;;;;;;;12.90;99.90;;;;;;5061543;28;19973;-76
2022/10/13 01:58:53;;;;;;;;;;;12.90;99.90;;;;;;5042273;28;20308;-77
2022/10/13 02:01:22;;;;;;;;;;;12.90;99.90;;;;;;5042294;28;20163;-76
2022/10/13 02:03:50;;;;;;;;;;;12.80;99.90;;;;;;5057947;28;19917;-76
2022/10/13 02:06:21;;;;;;;;;;;12.90;99.90;;;;;;5056452;28;20016;-75
2022/10/13 02:08:53;;;;;;;;;;;12.90;99.90;;;;;;5077360;28;19916;-75
2022/10/13 02:11:19;;;;;;;;;;;12.80;99.90;;;;;;5070266;28;20331;-76
2022/10/13 02:13:57;;;;;;;;;;;12.80;99.90;;;;;;5082910;28;19968;-76
2022/10/13 02:16:24;;;;;;;;;;;12.90;99.90;;;;;;5067799;28;19912;-76
2022/10/13 02:18:50;;;;;;;;;;;12.90;99.90;;;;;;5077955;28;20003;-76
2022/10/13 02:21:16;;;;;;;;;;;12.90;99.90;;;;;;5044685;28;20003;-77
2022/10/13 02:23:42;;;;;;;;;;;12.90;99.90;;;;;;5050945;28;20034;-76
2022/10/13 02:26:08;;;;;;;;;;;12.90;99.90;;;;;;5051397;28;20008;-76
2022/10/13 02:28:35;;;;;;;;;;;12.80;99.90;;;;;;5077003;28;20056;-76
2022/10/13 02:31:00;;;;;;;;;;;12.90;99.90;;;;;;5072987;28;19968;-76
2022/10/13 02:33:26;;;;;;;;;;;12.80;99.90;;;;;;5059269;28;19925;-76
2022/10/13 02:35:51;;;;;;;;;;;12.90;99.90;;;;;;5039877;28;19924;-77
2022/10/13 02:38:17;;;;;;;;;;;12.90;99.90;;;;;;5059355;28;20321;-76
2022/10/13 02:40:43;;;;;;;;;;;12.90;99.90;;;;;;5053653;28;19969;-77
2022/10/13 02:43:08;;;;;;;;;;;12.90;99.90;;;;;;5066645;28;19931;-76
2022/10/13 02:45:33;;;;;;;;;;;12.90;99.90;;;;;;5066739;28;20001;-76
2022/10/13 02:47:59;;;;;;;;;;;12.90;99.90;;;;;;5061423;28;19924;-77
2022/10/13 02:50:25;;;;;;;;;;;12.90;99.90;;;;;;5063913;28;19930;-76
2022/10/13 02:52:50;;;;;;;;;;;12.90;99.90;;;;;;5049232;28;20066;-76
2022/10/13 02:55:16;;;;;;;;;;;12.80;99.90;;;;;;5061485;28;19974;-76
2022/10/13 02:57:42;;;;;;;;;;;12.80;99.90;;;;;;5060702;28;19916;-76
2022/10/13 03:00:08;;;;;;;;;;;12.80;99.90;;;;;;5078863;28;19916;-76
2022/10/13 03:02:33;;;;;;;;;;;12.80;99.90;;;;;;5046018;28;20054;-76
2022/10/13 03:04:59;;;;;;;;;;;12.70;99.90;;;;;;5065870;28;19917;-76
2022/10/13 03:07:24;;;;;;;;;;;12.70;99.90;;;;;;5065521;28;20016;-76
2022/10/13 03:09:50;;;;;;;;;;;12.70;99.90;;;;;;5065844;28;19955;-76
2022/10/13 03:12:15;;;;;;;;;;;12.70;99.90;;;;;;5056389;28;19923;-76
2022/10/13 03:14:41;;;;;;;;;;;12.60;99.90;;;;;;5027963;28;20379;-76
2022/10/13 03:17:06;;;;;;;;;;;12.60;99.90;;;;;;5070576;28;19908;-76
2022/10/13 03:19:32;;;;;;;;;;;12.60;99.90;;;;;;5059431;28;19959;-75
2022/10/13 03:21:57;;;;;;;;;;;12.60;99.90;;;;;;5083729;28;19912;-76
2022/10/13 03:24:23;;;;;;;;;;;12.50;99.90;;;;;;5086041;28;19919;-76
2022/10/13 03:26:48;;;;;;;;;;;12.50;99.90;;;;;;5045414;28;19979;-77
2022/10/13 03:29:15;;;;;;;;;;;12.60;99.90;;;;;;5072773;28;20351;-76
2022/10/13 03:31:41;;;;;;;;;;;12.60;99.90;;;;;;5047218;28;20010;-76
2022/10/13 03:34:07;;;;;;;;;;;12.60;99.90;;;;;;5035118;28;20008;-76
2022/10/13 03:36:32;;;;;;;;;;;12.60;99.90;;;;;;5045261;28;20106;-77
2022/10/13 03:38:58;;;;;;;;;;;12.60;99.90;;;;;;5028506;28;20100;-77
2022/10/13 03:41:23;;;;;;;;;;;12.60;99.90;;;;;;5028668;28;20003;-77
2022/10/13 03:43:49;;;;;;;;;;;12.60;99.90;;;;;;5055618;28;20505;-77
2022/10/13 03:46:16;;;;;;;;;;;12.60;99.90;;;;;;5078812;28;19952;-76
2022/10/13 03:48:42;;;;;;;;;;;12.50;99.90;;;;;;5051755;28;20449;-77
2022/10/13 03:51:08;;;;;;;;;;;12.50;99.90;;;;;;5073393;28;19920;-77
2022/10/13 03:53:34;;;;;;;;;;;12.50;99.90;;;;;;5085951;28;19919;-77
2022/10/13 03:56:00;;;;;;;;;;;12.50;99.90;;;;;;5076979;28;20020;-77
2022/10/13 03:58:27;;;;;;;;;;;12.50;99.90;;;;;;5043516;28;19959;-77
2022/10/13 04:00:53;;;;;;;;;;;12.40;99.90;;;;;;5046504;28;20365;-77
2022/10/13 04:03:19;;;;;;;;;;;12.40;99.90;;;;;;5068842;28;20019;-77
2022/10/13 04:05:45;;;;;;;;;;;12.40;99.90;;;;;;5036825;28;19913;-76
2022/10/13 04:08:11;;;;;;;;;;;12.40;99.90;;;;;;5037087;28;20340;-75
2022/10/13 04:10:37;;;;;;;;;;;12.40;99.90;;;;;;5064864;28;20449;-77
2022/10/13 04:13:02;;;;;;;;;;;12.40;99.90;;;;;;5046696;28;20026;-77
2022/10/13 04:15:28;;;;;;;;;;;12.40;99.90;;;;;;5054285;28;19977;-77
2022/10/13 04:17:53;;;;;;;;;;;12.40;99.90;;;;;;5072449;28;19928;-77
2022/10/13 04:20:19;;;;;;;;;;;12.40;99.90;;;;;;5059759;28;19978;-77
2022/10/13 04:22:44;;;;;;;;;;;12.40;99.90;;;;;;5046013;28;19912;-77
2022/10/13 04:25:10;;;;;;;;;;;12.30;99.90;;;;;;5046054;28;20018;-77
2022/10/13 04:27:38;;;;;;;;;;;12.30;99.90;;;;;;5078003;28;19924;-76
2022/10/13 04:30:05;;;;;;;;;;;12.30;99.90;;;;;;5081822;28;20019;-77
2022/10/13 04:32:30;;;;;;;;;;;12.30;99.90;;;;;;5064617;28;19943;-77
2022/10/13 04:34:56;;;;;;;;;;;12.30;99.90;;;;;;5046198;28;19958;-77
2022/10/13 04:37:22;;;;;;;;;;;12.30;99.90;;;;;;5064304;28;19967;-76
2022/10/13 04:39:47;;;;;;;;;;;12.30;99.90;;;;;;5050613;28;20035;-77
2022/10/13 04:42:13;;;;;;;;;;;12.30;99.90;;;;;;5070574;28;20035;-77
2022/10/13 04:44:38;;;;;;;;;;;12.20;99.90;;;;;;5063943;28;20386;-76
2022/10/13 04:47:04;;;;;;;;;;;12.20;99.90;;;;;;5067000;28;20133;-77
2022/10/13 04:49:29;;;;;;;;;;;12.20;99.90;;;;;;5046496;28;19916;-77
2022/10/13 04:51:55;;;;;;;;;;;12.20;99.90;;;;;;5045506;28;20274;-76
2022/10/13 04:54:21;;;;;;;;;;;12.20;99.90;;;;;;5065159;28;20405;-76
2022/10/13 04:56:46;;;;;;;;;;;12.20;99.90;;;;;;5062813;28;19963;-77
2022/10/13 04:59:12;;;;;;;;;;;12.20;99.90;;;;;;5048067;28;20500;-77
2022/10/13 05:01:37;;;;;;;;;;;12.20;99.90;;;;;;5065188;28;19916;-76
2022/10/13 05:04:03;;;;;;;;;;;12.20;99.90;;;;;;5064973;28;20436;-76
2022/10/13 05:06:31;;;;;;;;;;;12.10;99.90;;;;;;5045533;28;19924;-76
2022/10/13 05:08:56;;;;;;;;;;;12.20;99.90;;;;;;5040668;28;19942;-76
2022/10/13 05:11:23;;;;;;;;;;;12.20;99.90;;;;;;5076309;28;19916;-77
2022/10/13 05:13:48;;;;;;;;;;;12.20;99.90;;;;;;5075076;28;20015;-76
2022/10/13 05:16:15;;;;;;;;;;;12.20;99.90;;;;;;5082905;28;19930;-77
2022/10/13 05:18:41;;;;;;;;;;;12.20;99.90;;;;;;5066217;28;19939;-77
2022/10/13 05:21:07;;;;;;;;;;;12.20;99.90;;;;;;5063951;28;19916;-76
2022/10/13 05:23:32;;;;;;;;;;;12.20;99.90;;;;;;5072859;28;20393;-76
2022/10/13 05:26:02;;;;;;;;;;;12.20;99.90;;;;;;5079054;28;19952;-77
2022/10/13 05:28:27;;;;;;;;;;;12.20;99.90;;;;;;5062268;28;19978;-77
2022/10/13 05:30:53;;;;;;;;;;;12.20;99.90;;;;;;5063632;28;20366;-77
2022/10/13 05:33:18;;;;;;;;;;;12.10;99.90;;;;;;5025122;28;19999;-77
2022/10/13 05:35:44;;;;;;;;;;;12.20;99.90;;;;;;5043402;28;20331;-77
2022/10/13 05:38:09;;;;;;;;;;;12.10;99.90;;;;;;5059525;28;20428;-77
2022/10/13 05:40:35;;;;;;;;;;;12.20;99.90;;;;;;5074333;28;19916;-76
2022/10/13 05:43:01;;;;;;;;;;;12.10;99.90;;;;;;5047154;28;19913;-77
2022/10/13 05:45:28;;;;;;;;;;;12.20;99.90;;;;;;5062415;28;19976;-76
2022/10/13 05:47:53;;;;;;;;;;;12.10;99.90;;;;;;5044706;28;19921;-76
2022/10/13 05:50:19;;;;;;;;;;;12.20;99.90;;;;;;5079451;28;20371;-76
2022/10/13 05:52:45;;;;;;;;;;;12.20;99.90;;;;;;5072434;28;19917;-76
2022/10/13 05:55:12;;;;;;;;;;;12.20;99.90;;;;;;5075639;28;20639;-76
2022/10/13 05:57:42;;;;;;;;;;;12.20;99.90;;;;;;5052638;28;19916;-76
2022/10/13 06:00:09;;;;;;;;;;;12.20;99.90;;;;;;5049232;28;19909;-76
2022/10/13 06:02:47;;;;;;;;;;;12.20;99.90;;;;;;5061165;28;19992;-76
2022/10/13 06:05:15;;;;;;;;;;;12.10;99.90;;;;;;5059342;28;20003;-77
2022/10/13 06:07:41;;;;;;;;;;;12.10;99.90;;;;;;5045816;28;20015;-76
2022/10/13 06:10:07;;;;;;;;;;;12.10;99.90;;;;;;5077704;28;20033;-75
2022/10/13 06:12:32;;;;;;;;;;;12.10;99.90;;;;;;5073344;28;20480;-76
2022/10/13 06:14:58;;;;;;;;;;;12.10;99.90;;;;;;5049903;28;19916;-77
2022/10/13 06:17:23;;;;;;;;;;;12.10;99.90;;;;;;5062440;28;19912;-76
2022/10/13 06:19:49;;;;;;;;;;;12.10;99.90;;;;;;5062186;28;19922;-76
2022/10/13 06:22:14;;;;;;;;;;;12.10;99.90;;;;;;5044150;28;19973;-76
2022/10/13 06:24:40;;;;;;;;;;;12.10;99.90;;;;;;5062611;28;20413;-76
2022/10/13 06:27:05;;;;;;;;;;;12.10;99.90;;;;;;5068853;28;19920;-76
2022/10/13 06:29:32;;;;;;;;;;;12.10;99.90;;;;;;5057799;28;20061;-76
2022/10/13 06:31:57;;;;;;;;;;;12.20;99.90;;;;;;5042761;28;20363;-76
2022/10/13 06:34:23;;;;;;;;;;;12.10;99.90;;;;;;5041648;28;20066;-76
2022/10/13 06:36:48;;;;;;;;;;;12.20;99.90;;;;;;5056834;28;19915;-76
2022/10/13 06:39:14;;;;;;;;;;;12.20;99.90;;;;;;5071668;28;19916;-76
2022/10/13 06:41:39;;;;;;;;;;;12.20;99.90;;;;;;5062293;28;19958;-76
2022/10/13 06:44:05;;;;;;;;;;;12.20;99.90;;;;;;5054796;28;20347;-77
2022/10/13 06:46:30;;;;;;;;;;;12.20;99.90;;;;;;5071382;28;20271;-76
2022/10/13 06:48:56;;;;;;;;;;;12.20;99.90;;;;;;5070798;28;20306;-76
2022/10/13 06:51:21;;;;;;;;;;;12.20;99.90;;;;;;5065642;28;20015;-76
2022/10/13 06:53:47;;;;;;;;;;;12.20;99.90;;;;;;5049674;28;19947;-76
2022/10/13 06:56:13;;;;;;;;;;;12.20;99.90;;;;;;5054344;28;19966;-76
2022/10/13 06:58:38;;;;;;;;;;;12.30;99.90;;;;;;5030780;28;19920;-76
2022/10/13 07:01:04;;;;;;;;;;;12.30;99.90;;;;;;5038722;28;19927;-76
2022/10/13 07:03:30;;;;;;;;;;;12.30;99.90;;;;;;5063798;28;19913;-76
2022/10/13 07:06:05;;;;;;;;;;;12.30;99.90;;;;;;5065135;28;20038;-76
2022/10/13 07:08:31;;;;;;;;;;;12.30;99.90;;;;;;5051306;28;19931;-76
2022/10/13 07:10:57;;;;;;;;;;;12.40;99.90;;;;;;5054809;28;20329;-76
2022/10/13 07:13:22;;;;;;;;;;;12.40;99.90;;;;;;5041945;28;19923;-76
2022/10/13 07:15:48;;;;;;;;;;;12.40;99.90;;;;;;5053836;28;19986;-76
2022/10/13 07:18:13;;;;;;;;;;;12.50;99.90;;;;;;5053686;28;20368;-77
2022/10/13 07:20:39;;;;;;;;;;;12.50;99.90;;;;;;5065421;28;20343;-76
2022/10/13 07:23:04;;;;;;;;;;;12.50;99.90;;;;;;5070063;28;19966;-77
2022/10/13 07:25:30;;;;;;;;;;;12.50;99.90;;;;;;5062598;28;19967;-77
2022/10/13 07:27:57;;;;;;;;;;;12.50;99.90;;;;;;5056280;28;20377;-77
2022/10/13 07:30:22;;;;;;;;;;;12.60;99.90;;;;;;5042056;28;19928;-77
2022/10/13 07:32:48;;;;;;;;;;;12.70;99.90;;;;;;5068564;28;19920;-77
2022/10/13 07:35:13;;;;;;;;;;;12.70;99.90;;;;;;5048027;28;20333;-77
2022/10/13 07:37:39;;;;;;;;;;;12.80;99.90;;;;;;5045653;28;19917;-77
2022/10/13 07:40:05;;;;;;;;;;;12.80;99.90;;;;;;5044833;28;19921;-77
2022/10/13 07:42:31;;;;;;;;;;;12.80;99.90;;;;;;4694333;28;10000090;-76
2022/10/13 07:44:56;;;;;;;;;;;12.90;99.90;;;;;;5028103;28;19971;-77
2022/10/13 07:47:22;;;;;;;;;;;13.00;99.90;;;;;;5044854;28;19924;-77
2022/10/13 07:49:47;;;;;;;;;;;12.90;99.90;;;;;;5052469;28;19916;-77
2022/10/13 07:52:13;;;;;;;;;;;13.00;99.90;;;;;;5079865;28;19920;-77
2022/10/13 07:54:38;;;;;;;;;;;13.00;99.90;;;;;;5048429;28;19917;-77
2022/10/13 07:57:04;;;;;;;;;;;13.10;99.90;;;;;;5058152;28;19921;-77
2022/10/13 07:59:31;;;;;;;;;;;13.00;99.90;;;;;;5050144;28;19916;-76
2022/10/13 08:01:56;;;;;;;;;;;13.10;99.90;;;;;;5054826;28;20391;-76
2022/10/13 08:04:22;;;;;;;;;;;13.20;99.90;;;;;;5035782;28;20017;-77
2022/10/13 08:06:47;;;;;;;;;;;13.20;99.90;;;;;;5036721;28;19928;-77
2022/10/13 08:09:13;;;;;;;;;;;13.30;99.90;;;;;;5051938;28;19916;-77
2022/10/13 08:11:38;;;;;;;;;;;13.40;99.90;;;;;;5055143;28;19920;-76
2022/10/13 08:14:04;;;;;;;;;;;13.50;99.90;;;;;;5056338;28;19916;-77
2022/10/13 08:16:31;;;;;;;;;;;13.60;99.90;;;;;;5079831;28;19923;-76
2022/10/13 08:18:57;;;;;;;;;;;13.70;99.90;;;;;;5060672;28;19917;-76
2022/10/13 08:21:22;;;;;;;;;;;13.80;99.90;;;;;;5059209;28;19924;-77
2022/10/13 08:23:49;;;;;;;;;;;13.90;99.90;;;;;;5078593;28;19916;-76
2022/10/13 08:26:16;;;;;;;;;;;13.90;99.90;;;;;;5046186;28;19985;-76
2022/10/13 08:28:42;;;;;;;;;;;13.90;99.90;;;;;;5058790;28;19932;-76
2022/10/13 08:31:07;;;;;;;;;;;14.00;99.90;;;;;;5037909;28;19917;-77
2022/10/13 08:33:33;;;;;;;;;;;14.00;99.90;;;;;;5045957;28;20475;-76
2022/10/13 08:35:58;;;;;;;;;;;14.00;99.90;;;;;;5047050;28;20204;-76
2022/10/13 08:38:24;;;;;;;;;;;14.00;99.90;;;;;;5054069;28;20194;-79
2022/10/13 08:40:50;;;;;;;;;;;14.00;99.90;;;;;;5056311;28;20299;-76
2022/10/13 08:43:20;;;;;;;;;;;14.00;99.90;;;;;;5051772;28;19916;-76
2022/10/13 08:45:48;;;;;;;;;;;14.00;99.90;;;;;;5053122;28;19916;-76
2022/10/13 08:48:18;;;;;;;;;;;13.90;99.90;;;;;;5051599;28;19924;-76
2022/10/13 08:50:45;;;;;;;;;;;13.90;99.90;;;;;;5035343;28;19916;-76
2022/10/13 08:53:12;;;;;;;;;;;14.00;99.90;;;;;;5032973;28;19939;-76
2022/10/13 08:55:43;;;;;;;;;;;14.10;99.90;;;;;;5036462;28;19959;-77
2022/10/13 08:58:28;;;;;;;;;;;14.20;99.90;;;;;;5071256;28;20005;-76
2022/10/13 09:01:32;;;;;;;;;;;14.20;99.90;;;;;;5067391;28;19970;-80
2022/10/13 09:04:16;;;;;;;;;;;14.30;99.90;;;;;;5025617;28;19917;-77
2022/10/13 09:07:08;;;;;;;;;;;14.50;99.90;;;;;;5011414;28;19931;-77
2022/10/13 09:09:34;;;;;;;;;;;14.50;99.90;;;;;;5023023;28;19916;-76
2022/10/13 09:12:00;;;;;;;;;;;14.50;99.90;;;;;;5048671;28;19958;-77
2022/10/13 09:14:27;;;;;;;;;;;14.60;99.90;;;;;;5067002;28;19916;-76
2022/10/13 09:16:53;;;;;;;;;;;14.60;99.90;;;;;;5054569;28;20165;-76
2022/10/13 09:19:28;;;;;;;;;;;14.70;99.90;;;;;;5042606;28;19917;-77
2022/10/13 09:21:55;;;;;;;;;;;14.70;99.90;;;;;;5063546;28;20006;-76
2022/10/13 09:24:22;;;;;;;;;;;14.70;99.90;;;;;;5056163;28;19923;-76
2022/10/13 09:26:48;;;;;;;;;;;14.80;99.90;;;;;;5061545;28;19928;-76
2022/10/13 09:29:24;;;;;;;;;;;14.80;99.90;;;;;;5056274;28;19928;-76
2022/10/13 09:31:50;;;;;;;;;;;14.90;99.90;;;;;;5074183;28;19916;-77
2022/10/13 09:34:22;;;;;;;;;;;14.90;99.90;;;;;;5046413;28;19931;-77
2022/10/13 09:36:54;;;;;;;;;;;15.00;99.90;;;;;;5061310;28;19916;-77
2022/10/13 09:39:20;;;;;;;;;;;15.10;99.90;;;;;;5070198;28;19951;-76
2022/10/13 09:41:45;;;;;;;;;;;15.20;99.90;;;;;;5066003;28;19951;-77
2022/10/13 09:44:18;;;;;;;;;;;15.20;99.90;;;;;;5054190;28;20001;-77
2022/10/13 09:46:45;;;;;;;;;;;15.20;99.90;;;;;;5039444;28;19931;-76
2022/10/13 09:49:20;;;;;;;;;;;15.20;99.90;;;;;;5062578;28;19923;-76
2022/10/13 09:51:47;;;;;;;;;;;15.20;99.90;;;;;;5064641;28;20091;-77
2022/10/13 09:54:27;;;;;;;;;;;15.20;99.90;;;;;;5060756;28;19923;-77
2022/10/13 09:57:01;;;;;;;;;;;15.10;99.90;;;;;;5059994;28;19916;-76
2022/10/13 09:59:31;;;;;;;;;;;15.10;99.90;;;;;;5032684;28;20027;-77
2022/10/13 10:01:59;;;;;;;;;;;14.90;99.90;;;;;;5061937;28;19927;-77
2022/10/13 10:04:30;;;;;;;;;;;15.00;99.90;;;;;;5063122;28;20059;-77
2022/10/13 10:06:55;;;;;;;;;;;15.10;99.90;;;;;;5058190;28;19924;-77
2022/10/13 10:09:24;;;;;;;;;;;15.00;99.90;;;;;;5052219;28;20064;-77
2022/10/13 10:11:52;;;;;;;;;;;15.20;99.90;;;;;;5062144;28;19924;-76
2022/10/13 10:14:25;;;;;;;;;;;15.30;99.90;;;;;;5056614;28;19974;-77
2022/10/13 10:17:05;;;;;;;;;;;15.40;99.90;;;;;;5071410;28;20405;-77
2022/10/13 10:19:42;;;;;;;;;;;15.50;99.90;;;;;;5050040;28;19916;-77
2022/10/13 10:22:10;;;;;;;;;;;15.50;99.90;;;;;;5062216;28;19923;-76
2022/10/13 10:24:42;;;;;;;;;;;15.50;99.90;;;;;;5074648;28;19962;-76
2022/10/13 10:27:14;;;;;;;;;;;15.60;99.90;;;;;;5061083;28;19924;-76
2022/10/13 10:29:53;;;;;;;;;;;15.60;99.90;;;;;;5020136;28;20198;-77
2022/10/13 10:32:19;;;;;;;;;;;15.70;99.90;;;;;;5042259;28;20002;-77
2022/10/13 10:34:58;;;;;;;;;;;16.10;99.90;;;;;;5031277;28;20015;-77
2022/10/13 10:37:43;;;;;;;;;;;16.30;99.90;;;;;;5027052;28;19917;-77
2022/10/13 10:40:11;;;;;;;;;;;16.50;99.90;;;;;;5039244;28;19916;-76
2022/10/13 10:42:40;;;;;;;;;;;16.40;99.90;;;;;;5043056;28;19952;-77
2022/10/13 10:45:12;;;;;;;;;;;16.30;99.90;;;;;;5039743;28;19917;-76
2022/10/13 10:47:40;;;;;;;;;;;16.20;99.90;;;;;;5040327;28;19960;-76
2022/10/13 10:50:06;;;;;;;;;;;16.00;99.90;;;;;;5024343;28;19917;-77
2022/10/13 10:52:45;;;;;;;;;;;15.90;99.90;;;;;;5035746;28;19913;-77
2022/10/13 10:55:17;;;;;;;;;;;15.90;99.90;;;;;;5038334;28;20621;-77
2022/10/13 10:57:58;;;;;;;;;;;15.90;99.90;;;;;;5039467;28;20008;-76
2022/10/13 11:00:24;;;;;;;;;;;15.90;99.90;;;;;;4685157;28;10000012;-77
2022/10/13 11:03:02;;;;;;;;;;;15.90;99.90;;;;;;5058145;28;19916;-76
2022/10/13 11:05:46;;;;;;;;;;;15.90;99.90;;;;;;5022768;28;20463;-76
2022/10/13 11:08:24;;;;;;;;;;;15.90;99.90;;;;;;5040680;28;19985;-76
2022/10/13 11:11:10;;;;;;;;;;;16.10;99.90;;;;;;5043268;28;19916;-76
2022/10/13 11:13:48;;;;;;;;;;;16.30;99.90;;;;;;5029488;28;20035;-76
2022/10/13 11:16:26;;;;;;;;;;;16.50;99.90;;;;;;5032336;28;19917;-76
2022/10/13 11:19:07;;;;;;;;;;;16.50;99.90;;;;;;5041800;28;19927;-77
2022/10/13 11:21:51;;;;;;;;;;;16.60;99.90;;;;;;5026663;28;20250;-76
2022/10/13 11:24:32;;;;;;;;;;;16.90;99.90;;;;;;5050218;28;20414;-76
2022/10/13 11:27:21;;;;;;;;;;;17.00;99.90;;;;;;5027396;28;19917;-77
2022/10/13 11:29:47;;;;;;;;;;;17.20;99.90;;;;;;5024707;28;19924;-76
2022/10/13 11:35:08;;;;;;;;;;;17.30;99.90;;;;;;5049469;28;20435;-76
2022/10/13 11:37:40;;;;;;;;;;;17.60;99.90;;;;;;5044471;28;20678;-76
2022/10/13 11:40:22;;;;;;;;;;;17.40;99.90;;;;;;5026432;28;19921;-75
2022/10/13 11:42:57;;;;;;;;;;;17.30;99.90;;;;;;5023462;28;20035;-75
2022/10/13 11:45:25;;;;;;;;;;;17.30;99.90;;;;;;5055387;28;19921;-76
2022/10/13 11:48:06;;;;;;;;;;;17.40;99.90;;;;;;5057882;28;19925;-76
2022/10/13 11:50:50;;;;;;;;;;;17.60;99.90;;;;;;5044052;28;19917;-76
2022/10/13 11:53:21;;;;;;;;;;;17.50;99.90;;;;;;5051038;28;20410;-76
2022/10/13 11:55:47;;;;;;;;;;;17.50;99.90;;;;;;5044177;28;19917;-76
2022/10/13 11:58:15;;;;;;;;;;;17.40;99.90;;;;;;5041028;28;19923;-76
2022/10/13 12:00:50;;;;;;;;;;;17.60;99.90;;;;;;5049934;28;19984;-76
2022/10/13 12:03:20;;;;;;;;;;;18.10;99.90;;;;;;5036197;28;19960;-76
2022/10/13 12:05:47;;;;;;;;;;;18.50;99.90;;;;;;5016821;28;19921;-77
2022/10/13 12:08:12;;;;;;;;;;;18.70;99.90;;;;;;5040807;28;20071;-75
2022/10/13 12:10:38;;;;;;;;;;;19.00;99.90;;;;;;5049164;28;20539;-77
2022/10/13 12:13:04;;;;;;;;;;;18.90;99.90;;;;;;5047435;28;20545;-76
2022/10/13 12:15:32;;;;;;;;;;;18.70;99.90;;;;;;5026882;28;20062;-76
2022/10/13 12:17:58;;;;;;;;;;;18.30;99.90;;;;;;5057352;28;19916;-78
2022/10/13 12:20:25;;;;;;;;;;;18.00;99.90;;;;;;5045472;28;20211;-78
2022/10/13 12:22:52;;;;;;;;;;;17.80;99.90;;;;;;5046142;28;20127;-78
2022/10/13 12:25:19;;;;;;;;;;;17.60;99.90;;;;;;5047152;28;19921;-77
2022/10/13 12:27:46;;;;;;;;;;;17.60;99.90;;;;;;5045346;28;19959;-75
2022/10/13 12:30:22;;;;;;;;;;;17.70;99.90;;;;;;5060035;28;19962;-79
2022/10/13 12:32:49;;;;;;;;;;;17.90;99.90;;;;;;5043606;28;19912;-78
2022/10/13 12:35:16;;;;;;;;;;;18.10;99.90;;;;;;5054298;28;20016;-77
2022/10/13 12:37:42;;;;;;;;;;;18.10;99.90;;;;;;5044347;28;20380;-78
2022/10/13 12:40:09;;;;;;;;;;;18.10;99.90;;;;;;5067471;28;19924;-77
2022/10/13 12:42:35;;;;;;;;;;;17.90;99.90;;;;;;5064608;28;20321;-77
2022/10/13 12:45:01;;;;;;;;;;;17.50;99.90;;;;;;5062932;28;20465;-77
2022/10/13 12:47:46;;;;;;;;;;;17.40;99.90;;;;;;5056553;28;19920;-77
2022/10/13 12:50:22;;;;;;;;;;;17.10;99.90;;;;;;5073759;28;19943;-78
2022/10/13 12:52:49;;;;;;;;;;;16.90;99.90;;;;;;4716624;28;10000064;-78
2022/10/13 12:55:16;;;;;;;;;;;16.80;99.90;;;;;;5057127;28;20160;-78
2022/10/13 12:57:43;;;;;;;;;;;16.60;99.90;;;;;;5067316;28;19912;-78
2022/10/13 13:00:15;;;;;;;;;;;16.50;99.90;;;;;;5065193;28;19926;-77
2022/10/13 13:02:41;;;;;;;;;;;16.40;99.90;;;;;;5065032;28;20345;-78
2022/10/13 13:05:26;;;;;;;;;;;16.20;99.90;;;;;;5059389;28;20000;-77
2022/10/13 13:07:52;;;;;;;;;;;16.20;99.90;;;;;;5045586;28;19970;-76
2022/10/13 13:10:18;;;;;;;;;;;16.10;99.90;;;;;;5061617;28;19916;-77
2022/10/13 13:12:43;;;;;;;;;;;16.10;99.90;;;;;;5043705;28;19916;-77
2022/10/13 13:15:24;;;;;;;;;;;16.20;99.90;;;;;;5062476;28;19913;-77
2022/10/13 13:17:53;;;;;;;;;;;16.30;99.90;;;;;;5063105;28;19952;-76
2022/10/13 13:20:20;;;;;;;;;;;16.50;99.90;;;;;;5045678;28;19912;-77
2022/10/13 13:22:45;;;;;;;;;;;16.80;99.90;;;;;;5042192;28;20066;-76
2022/10/13 13:25:11;;;;;;;;;;;16.90;99.90;;;;;;5065317;28;20409;-77
2022/10/13 13:27:38;;;;;;;;;;;17.20;99.90;;;;;;5067018;28;20427;-77
2022/10/13 13:30:08;;;;;;;;;;;17.30;99.90;;;;;;5046229;28;19924;-77
2022/10/13 13:32:34;;;;;;;;;;;17.40;99.90;;;;;;5060062;28;19916;-77
2022/10/13 13:34:59;;;;;;;;;;;17.30;99.90;;;;;;5039748;28;20399;-77
2022/10/13 13:37:51;;;;;;;;;;;17.50;99.90;;;;;;5057078;28;19916;-77
2022/10/13 13:40:21;;;;;;;;;;;17.60;99.90;;;;;;5047549;28;20334;-77
2022/10/13 13:42:47;;;;;;;;;;;17.60;99.90;;;;;;5055920;28;20196;-77
2022/10/13 13:45:13;;;;;;;;;;;17.50;99.90;;;;;;5054238;28;20421;-76
2022/10/13 13:47:39;;;;;;;;;;;17.50;99.90;;;;;;5037484;28;19936;-77
2022/10/13 13:50:12;;;;;;;;;;;17.40;99.90;;;;;;5068757;28;19916;-77
2022/10/13 13:52:37;;;;;;;;;;;17.30;99.90;;;;;;5060078;28;19946;-77
2022/10/13 13:55:03;;;;;;;;;;;17.40;99.90;;;;;;5049022;28;19920;-77
2022/10/13 13:57:28;;;;;;;;;;;17.60;99.90;;;;;;5040926;28;19916;-77
2022/10/13 13:59:54;;;;;;;;;;;17.90;99.90;;;;;;5051045;28;20275;-77
2022/10/13 14:02:20;;;;;;;;;;;18.20;99.90;;;;;;5049444;28;19916;-77
2022/10/13 14:04:45;;;;;;;;;;;18.50;99.90;;;;;;5037767;28;19952;-77
2022/10/13 14:07:11;;;;;;;;;;;18.40;99.90;;;;;;5051529;28;19932;-77
2022/10/13 14:09:37;;;;;;;;;;;18.40;99.90;;;;;;5054688;28;19999;-76
2022/10/13 14:12:02;;;;;;;;;;;18.40;99.90;;;;;;5050541;28;19927;-76
2022/10/13 14:14:31;;;;;;;;;;;18.20;99.90;;;;;;5030076;28;19920;-77
2022/10/13 14:16:57;;;;;;;;;;;18.20;99.90;;;;;;5049433;28;19917;-76
2022/10/13 14:19:23;;;;;;;;;;;18.10;99.90;;;;;;5066978;28;19916;-77
2022/10/13 14:21:48;;;;;;;;;;;17.90;99.90;;;;;;5050827;28;19963;-76
2022/10/13 14:24:14;;;;;;;;;;;17.80;99.90;;;;;;5054527;28;20001;-77
2022/10/13 14:26:39;;;;;;;;;;;17.60;99.90;;;;;;5056146;28;20390;-77